地図

経路データ

SID SEASON NUMBER BASIN SUBBASIN NAME ISO_TIME NATURE LAT LON WMO_WIND WMO_PRES WMO_AGENCY TRACK_TYPE DIST2LAND LANDFALL IFLAG USA_AGENCY USA_ATCF_ID USA_LAT USA_LON USA_RECORD USA_STATUS USA_WIND USA_PRES USA_SSHS USA_R34_NE USA_R34_SE USA_R34_SW USA_R34_NW USA_R50_NE USA_R50_SE USA_R50_SW USA_R50_NW USA_R64_NE USA_R64_SE USA_R64_SW USA_R64_NW USA_POCI USA_ROCI USA_RMW USA_EYE TOKYO_LAT TOKYO_LON TOKYO_GRADE TOKYO_WIND TOKYO_PRES TOKYO_R50_DIR TOKYO_R50_LONG TOKYO_R50_SHORT TOKYO_R30_DIR TOKYO_R30_LONG TOKYO_R30_SHORT TOKYO_LAND CMA_LAT CMA_LON CMA_CAT CMA_WIND CMA_PRES HKO_LAT HKO_LON HKO_CAT HKO_WIND HKO_PRES NEWDELHI_LAT NEWDELHI_LON NEWDELHI_GRADE NEWDELHI_WIND NEWDELHI_PRES NEWDELHI_CI NEWDELHI_DP NEWDELHI_POCI REUNION_LAT REUNION_LON REUNION_TYPE REUNION_WIND REUNION_PRES REUNION_TNUM REUNION_CI REUNION_RMW REUNION_R34_NE REUNION_R34_SE REUNION_R34_SW REUNION_R34_NW REUNION_R50_NE REUNION_R50_SE REUNION_R50_SW REUNION_R50_NW REUNION_R64_NE REUNION_R64_SE REUNION_R64_SW REUNION_R64_NW BOM_LAT BOM_LON BOM_TYPE BOM_WIND BOM_PRES BOM_TNUM BOM_CI BOM_RMW BOM_R34_NE BOM_R34_SE BOM_R34_SW BOM_R34_NW BOM_R50_NE BOM_R50_SE BOM_R50_SW BOM_R50_NW BOM_R64_NE BOM_R64_SE BOM_R64_SW BOM_R64_NW BOM_ROCI BOM_POCI BOM_EYE BOM_POS_METHOD BOM_PRES_METHOD NADI_LAT NADI_LON NADI_CAT NADI_WIND NADI_PRES WELLINGTON_LAT WELLINGTON_LON WELLINGTON_WIND WELLINGTON_PRES DS824_LAT DS824_LON DS824_STAGE DS824_WIND DS824_PRES TD9636_LAT TD9636_LON TD9636_STAGE TD9636_WIND TD9636_PRES TD9635_LAT TD9635_LON TD9635_WIND TD9635_PRES TD9635_ROCI NEUMANN_LAT NEUMANN_LON NEUMANN_CLASS NEUMANN_WIND NEUMANN_PRES MLC_LAT MLC_LON MLC_CLASS MLC_WIND MLC_PRES USA_GUST BOM_GUST BOM_GUST_PER REUNION_GUST REUNION_GUST_PER USA_SEAHGT USA_SEARAD_NE USA_SEARAD_SE USA_SEARAD_SW USA_SEARAD_NW STORM_SPEED STORM_DIR
1910196N18128 1910 26 WP MM NOT_NAMED 1910-07-14 16:00:00 NR 17.7000 128.000 main 572 571 __________O___ -1 17.7000 128.000 7 12 327
1910196N18128 1910 26 WP MM NOT_NAMED 1910-07-14 18:00:00 NR 18.0312 127.771 main 573 538 __________P___ -1 18.0312 127.771 7 12 326
1910196N18128 1910 26 WP MM NOT_NAMED 1910-07-14 21:00:00 NR 18.5099 127.426 main 538 508 __________P___ -1 18.5099 127.426 7 11 324
1910196N18128 1910 26 WP MM NOT_NAMED 1910-07-15 00:00:00 NR 18.9424 127.076 main 508 473 __________P___ -1 18.9424 127.076 7 10 320
1910196N18128 1910 26 WP MM NOT_NAMED 1910-07-15 03:00:00 NR 19.3014 126.720 main 473 465 __________P___ -1 19.3014 126.720 7 10 315
1910196N18128 1910 26 WP MM NOT_NAMED 1910-07-15 04:00:00 NR 19.4000 126.600 main 465 448 __________O___ -1 19.4000 126.600 7 9 307
1910196N18128 1910 26 WP MM NOT_NAMED 1910-07-15 06:00:00 NR 19.5631 126.357 main 451 415 __________P___ -1 19.5631 126.357 7 8 301
1910196N18128 1910 26 WP MM NOT_NAMED 1910-07-15 09:00:00 NR 19.7445 125.988 main 415 385 __________P___ -1 19.7445 125.988 7 8 295
1910196N18128 1910 26 WP MM NOT_NAMED 1910-07-15 12:00:00 NR 19.8891 125.612 main 385 353 __________P___ -1 19.8891 125.612 7 8 293
1910196N18128 1910 26 WP MM NOT_NAMED 1910-07-15 15:00:00 NR 20.0404 125.229 main 353 350 __________P___ -1 20.0404 125.229 7 8 294
1910196N18128 1910 26 WP MM NOT_NAMED 1910-07-15 16:00:00 NR 20.1000 125.100 main 350 337 __________O___ -1 20.1000 125.100 7 9 301
1910196N18128 1910 26 WP MM NOT_NAMED 1910-07-15 18:00:00 NR 20.2685 124.824 main 337 321 __________P___ -1 20.2685 124.824 7 10 304
1910196N18128 1910 26 WP MM NOT_NAMED 1910-07-15 21:00:00 NR 20.5466 124.402 main 321 318 __________P___ -1 20.5466 124.402 7 10 306
1910196N18128 1910 26 WP MM NOT_NAMED 1910-07-16 00:00:00 NR 20.8356 123.992 main 322 293 __________P___ -1 20.8356 123.992 7 9 308
1910196N18128 1910 26 WP MM NOT_NAMED 1910-07-16 03:00:00 NR 21.1135 123.615 main 293 279 __________P___ -1 21.1135 123.615 7 9 308
1910196N18128 1910 26 WP MM NOT_NAMED 1910-07-16 04:00:00 NR 21.2000 123.500 main 279 254 __________O___ -1 21.2000 123.500 7 8 308
1910196N18128 1910 26 WP MM NOT_NAMED 1910-07-16 06:00:00 NR 21.3528 123.288 main 254 219 __________P___ -1 21.3528 123.288 7 7 308
1910196N18128 1910 26 WP MM NOT_NAMED 1910-07-16 09:00:00 NR 21.5634 123.008 main 219 196 __________P___ -1 21.5634 123.008 7 6 310
1910196N18128 1910 26 WP MM NOT_NAMED 1910-07-16 12:00:00 NR 21.7572 122.769 main 196 175 __________P___ -1 21.7572 122.769 7 6 312
1910196N18128 1910 26 WP MM NOT_NAMED 1910-07-16 15:00:00 NR 21.9403 122.562 main 175 164 __________P___ -1 21.9403 122.562 7 5 314
1910196N18128 1910 26 WP MM NOT_NAMED 1910-07-16 16:00:00 NR 22.0000 122.500 main 164 151 __________O___ -1 22.0000 122.500 3 4 312
1910196N18128 1910 26 WP MM NOT_NAMED 1910-07-16 18:00:00 NR 22.0854 122.384 main 151 128 __________P___ -1 22.0854 122.384 3 4 310
1910196N18128 1910 26 WP MM NOT_NAMED 1910-07-16 21:00:00 NR 22.2066 122.237 main 128 105 __________P___ -1 22.2066 122.237 3 4 316
1910196N18128 1910 26 WP MM NOT_NAMED 1910-07-17 00:00:00 NR 22.3612 122.101 main 105 83 __________P___ -1 22.3612 122.101 3 5 326
1910196N18128 1910 26 WP MM NOT_NAMED 1910-07-17 03:00:00 NR 22.5959 121.955 main 83 67 __________P___ -1 22.5959 121.955 3 6 331
1910196N18128 1910 26 WP MM NOT_NAMED 1910-07-17 04:00:00 NR 22.7000 121.900 main 67 42 __________O___ -1 22.7000 121.900 4 8 336
1910196N18128 1910 26 WP MM NOT_NAMED 1910-07-17 06:00:00 NR 22.9727 121.775 main 42 20 __________P___ -1 22.9727 121.775 4 10 338
1910196N18128 1910 26 WP MM NOT_NAMED 1910-07-17 09:00:00 NR 23.4700 121.569 main 20 0 __________P___ -1 23.4700 121.569 4 11 339
1910196N18128 1910 26 WP MM NOT_NAMED 1910-07-17 12:00:00 NR 24.0318 121.340 main 0 0 __________P___ -1 24.0318 121.340 4 12 339
1910196N18128 1910 26 WP MM NOT_NAMED 1910-07-17 15:00:00 NR 24.6111 121.089 main 0 0 __________P___ -1 24.6111 121.089 4 12 338
1910196N18128 1910 26 WP MM NOT_NAMED 1910-07-17 16:00:00 NR 24.8000 121.000 main 0 0 __________O___ -1 24.8000 121.000 4 12 336
1910196N18128 1910 26 WP MM NOT_NAMED 1910-07-17 18:00:00 NR 25.1640 120.816 main 30 30 __________P___ -1 25.1640 120.816 4 12 334
1910196N18128 1910 26 WP MM NOT_NAMED 1910-07-17 21:00:00 NR 25.6799 120.525 main 83 41 __________P___ -1 25.6799 120.525 4 11 332
1910196N18128 1910 26 WP MM NOT_NAMED 1910-07-18 00:00:00 NR 26.1694 120.220 main 41 0 __________P___ -1 26.1694 120.220 4 11 330
1910196N18128 1910 26 WP MM NOT_NAMED 1910-07-18 03:00:00 NR 26.6435 119.906 main 0 0 __________P___ -1 26.6435 119.906 4 11 329
1910196N18128 1910 26 WP MM NOT_NAMED 1910-07-18 04:00:00 NR 26.8000 119.800 main 0 __________O___ -1 26.8000 119.800 4 11 327

デジタル台風データ・検索

IBTrACS Databaseについて

本データベースは、米国NOAAが公開する1842年以降の世界の熱帯低気圧のベストトラックデータアーカイブInternational Best Track Archive for Climate Stewardship (IBTrACS)を、ウェブで閲覧しやすい形式に変換したものです。

最終更新日:2021-12-03